createdAt,value
2023-11-18T00:01:01.403Z,100241.75
2023-11-18T00:03:27.914Z,100246.96
2023-11-18T00:05:54.604Z,100248.71
2023-11-18T00:08:21.384Z,100246.53
2023-11-18T00:10:47.949Z,100246.77
2023-11-18T00:13:14.825Z,100249.55
2023-11-18T00:15:43.306Z,100249.61
2023-11-18T00:18:10.063Z,100252.39
2023-11-18T00:20:36.623Z,100253.56
2023-11-18T00:23:05.237Z,100252.73
2023-11-18T00:25:33.482Z,100257.15
2023-11-18T00:28:00.192Z,100257.76
2023-11-18T00:30:28.555Z,100254.67
2023-11-18T00:32:55.179Z,100250.17
2023-11-18T00:35:21.741Z,100251.50
2023-11-18T00:37:48.531Z,100252.20
2023-11-18T00:40:18.346Z,100253.05
2023-11-18T00:42:45.902Z,100251.16
2023-11-18T00:45:15.689Z,100246.16
2023-11-18T00:47:42.414Z,100245.02
2023-11-18T00:50:09.199Z,100238.83
2023-11-18T00:52:38.839Z,100240.29
2023-11-18T00:55:07.350Z,100237.79
2023-11-18T00:57:34.019Z,100234.58
2023-11-18T01:00:00.512Z,100232.70
2023-11-18T01:02:28.245Z,100231.73
2023-11-18T01:04:55.933Z,100233.70
2023-11-18T01:07:22.589Z,100233.36
2023-11-18T01:09:49.383Z,100237.54
2023-11-18T01:12:15.959Z,100236.11
2023-11-18T01:14:42.439Z,100236.46
2023-11-18T01:17:10.423Z,100230.20
2023-11-18T01:19:37.130Z,100230.02
2023-11-18T01:22:06.133Z,100228.29
2023-11-18T01:24:33.736Z,100223.24
2023-11-18T01:27:00.291Z,100224.47
2023-11-18T01:29:27.320Z,100227.44
2023-11-18T01:31:55.977Z,100225.35
2023-11-18T01:34:22.856Z,100227.05
2023-11-18T01:36:50.371Z,100227.75
2023-11-18T01:39:21.300Z,100227.59
2023-11-18T01:41:49.979Z,100230.56
2023-11-18T01:44:17.951Z,100230.75
2023-11-18T01:46:45.532Z,100231.02
2023-11-18T01:49:14.255Z,100230.98
2023-11-18T01:51:42.286Z,100230.27
2023-11-18T01:54:08.745Z,100232.20
2023-11-18T01:56:35.137Z,100237.33
2023-11-18T01:59:03.862Z,100233.36
2023-11-18T02:01:31.091Z,100240.30
2023-11-18T02:03:57.674Z,100243.08
2023-11-18T02:06:24.153Z,100245.62
2023-11-18T02:08:50.609Z,100243.10
2023-11-18T02:11:31.794Z,100242.02
2023-11-18T02:13:59.502Z,100243.04
2023-11-18T02:16:28.021Z,100241.70
2023-11-18T02:18:54.812Z,100240.49
2023-11-18T02:21:21.827Z,100248.17
2023-11-18T02:23:48.796Z,100250.45
2023-11-18T02:26:24.447Z,100248.94
2023-11-18T02:28:52.863Z,100254.27
2023-11-18T02:31:22.968Z,100252.14
2023-11-18T02:34:21.321Z,100254.26
2023-11-18T02:36:49.422Z,100246.79
2023-11-18T02:39:23.032Z,100245.02
2023-11-18T02:41:52.277Z,100244.44
2023-11-18T02:44:20.516Z,100244.07
2023-11-18T02:46:47.177Z,100242.42
2023-11-18T02:49:13.736Z,100239.56
2023-11-18T02:51:40.524Z,100241.55
2023-11-18T02:54:10.870Z,100238.60
2023-11-18T02:56:38.073Z,100241.59
2023-11-18T02:59:05.953Z,100240.23
2023-11-18T03:01:35.693Z,100240.04
2023-11-18T03:04:02.767Z,100240.23
2023-11-18T03:06:29.710Z,100240.62
2023-11-18T03:08:56.175Z,100239.95
2023-11-18T03:11:23.118Z,100244.69
2023-11-18T03:13:49.830Z,100243.63
2023-11-18T03:16:17.452Z,100247.41
2023-11-18T03:18:44.108Z,100247.17
2023-11-18T03:21:13.849Z,100247.96
2023-11-18T03:23:41.189Z,100247.35
2023-11-18T03:26:08.678Z,100247.04
2023-11-18T03:28:36.988Z,100245.95
2023-11-18T03:31:06.557Z,100248.60
2023-11-18T03:33:33.332Z,100248.78
2023-11-18T03:35:59.966Z,100242.05
2023-11-18T03:38:28.068Z,100249.13
2023-11-18T03:40:54.661Z,100244.98
2023-11-18T03:43:21.125Z,100248.06
2023-11-18T03:45:48.262Z,100244.59
2023-11-18T03:48:14.935Z,100243.55
2023-11-18T03:50:41.591Z,100244.45
2023-11-18T03:53:08.143Z,100243.23
2023-11-18T03:55:34.737Z,100241.55
2023-11-18T03:58:01.645Z,100247.13
2023-11-18T04:00:29.952Z,100246.77
2023-11-18T04:02:59.789Z,100252.20
2023-11-18T04:05:26.233Z,100256.85
2023-11-18T04:07:52.766Z,100259.81
2023-11-18T04:10:20.432Z,100257.23
2023-11-18T04:12:48.317Z,100256.87
2023-11-18T04:15:18.668Z,100262.25
2023-11-18T04:17:45.394Z,100259.11
2023-11-18T04:20:12.182Z,100259.63
2023-11-18T04:22:41.698Z,100262.17
2023-11-18T04:25:09.552Z,100261.75
2023-11-18T04:27:36.507Z,100257.05
2023-11-18T04:30:04.389Z,100259.98
2023-11-18T04:32:34.484Z,100259.61
2023-11-18T04:35:07.317Z,100261.33
2023-11-18T04:37:34.841Z,100261.55
2023-11-18T04:40:06.522Z,100262.77
2023-11-18T04:42:33.671Z,100266.13
2023-11-18T04:45:00.265Z,100267.04
2023-11-18T04:47:27.477Z,100271.10
2023-11-18T04:49:54.385Z,100269.83
2023-11-18T04:52:21.061Z,100276.08
2023-11-18T04:54:50.186Z,100273.66
2023-11-18T04:57:16.660Z,100277.47
2023-11-18T04:59:44.045Z,100278.58
2023-11-18T05:02:10.823Z,100280.16
2023-11-18T05:04:37.576Z,100279.64
2023-11-18T05:07:04.620Z,100284.87
2023-11-18T05:09:33.339Z,100281.23
2023-11-18T05:12:01.161Z,100286.29
2023-11-18T05:14:29.193Z,100289.98
2023-11-18T05:16:56.633Z,100293.70
2023-11-18T05:19:23.140Z,100296.20
2023-11-18T05:21:50.014Z,100298.81
2023-11-18T05:24:16.704Z,100302.45
2023-11-18T05:26:43.120Z,100307.30
2023-11-18T05:29:10.508Z,100311.21
2023-11-18T05:31:37.689Z,100319.94
2023-11-18T05:34:05.212Z,100326.46
2023-11-18T05:36:37.586Z,100333.14
2023-11-18T05:39:05.490Z,100337.09
2023-11-18T05:41:32.533Z,100334.93
2023-11-18T05:43:59.148Z,100338.20
2023-11-18T05:46:28.637Z,100347.52
2023-11-18T05:48:56.108Z,100354.68
2023-11-18T05:51:23.774Z,100356.27
2023-11-18T05:53:51.348Z,100357.94
2023-11-18T05:56:19.002Z,100362.03
2023-11-18T05:58:45.939Z,100361.96
2023-11-18T06:01:12.992Z,100370.22
2023-11-18T06:03:40.743Z,100373.30
2023-11-18T06:06:12.713Z,100375.52
2023-11-18T06:08:41.459Z,100382.95
2023-11-18T06:11:14.989Z,100389.98
2023-11-18T06:13:50.103Z,100388.83
2023-11-18T06:16:22.277Z,100392.95
2023-11-18T06:18:50.357Z,100396.83
2023-11-18T06:21:20.831Z,100396.73
2023-11-18T06:23:47.977Z,100396.55
2023-11-18T06:26:15.179Z,100394.77
2023-11-18T06:28:42.914Z,100397.46
2023-11-18T06:31:09.659Z,100396.70
2023-11-18T06:33:45.510Z,100400.80
2023-11-18T06:36:15.231Z,100399.81
2023-11-18T06:38:42.103Z,100400.89
2023-11-18T06:41:17.099Z,100405.30
2023-11-18T06:44:07.247Z,100405.92
2023-11-18T06:46:35.108Z,100411.02
2023-11-18T06:49:06.959Z,100413.51
2023-11-18T06:51:36.213Z,100417.40
2023-11-18T06:54:08.695Z,100428.95
2023-11-18T06:56:39.814Z,100425.59
2023-11-18T06:59:10.596Z,100428.20
2023-11-18T07:01:37.422Z,100432.96
2023-11-18T07:04:08.948Z,100431.86
2023-11-18T07:06:38.566Z,100426.30
2023-11-18T07:09:17.993Z,100423.77
2023-11-18T07:11:45.108Z,100417.52
2023-11-18T07:14:11.868Z,100413.64
2023-11-18T07:16:39.994Z,100415.52
2023-11-18T07:19:07.010Z,100412.58
2023-11-18T07:21:34.467Z,100414.77
2023-11-18T07:24:02.719Z,100419.63
2023-11-18T07:26:29.384Z,100420.04
2023-11-18T07:28:56.635Z,100418.31
2023-11-18T07:31:23.418Z,100417.35
2023-11-18T07:33:50.810Z,100414.61
2023-11-18T07:36:17.652Z,100415.10
2023-11-18T07:38:44.759Z,100416.84
2023-11-18T07:41:23.858Z,100425.30
2023-11-18T07:43:53.229Z,100427.26
2023-11-18T07:46:22.552Z,100428.74
2023-11-18T07:48:50.215Z,100426.02
2023-11-18T07:51:16.747Z,100427.03
2023-11-18T07:53:43.260Z,100428.34
2023-11-18T07:56:12.622Z,100425.58
2023-11-18T07:58:39.221Z,100427.30
2023-11-18T08:01:09.277Z,100424.59
2023-11-18T08:03:37.870Z,100426.60
2023-11-18T08:06:07.485Z,100435.27
2023-11-18T08:08:38.374Z,100439.52
2023-11-18T08:11:10.986Z,100442.05
2023-11-18T08:13:37.683Z,100440.54
2023-11-18T08:16:09.324Z,100439.48
2023-11-18T08:18:38.308Z,100445.78
2023-11-18T08:21:07.173Z,100440.73
2023-11-18T08:23:33.789Z,100441.50
2023-11-18T08:26:00.362Z,100444.84
2023-11-18T08:28:27.044Z,100443.21
2023-11-18T08:30:53.706Z,100443.55
2023-11-18T08:33:21.594Z,100448.19
2023-11-18T08:35:49.199Z,100454.80
2023-11-18T08:38:15.811Z,100456.73
2023-11-18T08:40:43.337Z,100463.29
2023-11-18T08:43:10.043Z,100459.63
2023-11-18T08:45:37.790Z,100459.89
2023-11-18T08:48:07.952Z,100462.15
2023-11-18T08:50:35.844Z,100461.98
2023-11-18T08:53:04.732Z,100464.41
2023-11-18T08:55:51.392Z,100464.92
2023-11-18T08:58:22.387Z,100462.50
2023-11-18T09:00:54.698Z,100460.69
2023-11-18T09:03:25.865Z,100458.00
2023-11-18T09:06:06.647Z,100455.36
2023-11-18T09:08:38.797Z,100451.09
2023-11-18T09:11:07.174Z,100443.00
2023-11-18T09:13:35.293Z,100436.41
2023-11-18T09:16:04.085Z,100439.19
2023-11-18T09:18:32.866Z,100436.98
2023-11-18T09:21:01.483Z,100433.36
2023-11-18T09:23:29.305Z,100427.74
2023-11-18T09:25:56.041Z,100430.69
2023-11-18T09:28:24.833Z,100424.91
2023-11-18T09:30:53.924Z,100425.77
2023-11-18T09:33:29.327Z,100420.23
2023-11-18T09:35:59.219Z,100419.02
2023-11-18T09:38:28.251Z,100419.44
2023-11-18T09:40:54.780Z,100414.95
2023-11-18T09:43:22.524Z,100412.55
2023-11-18T09:45:58.027Z,100410.23
2023-11-18T09:48:27.513Z,100399.29
2023-11-18T09:50:54.288Z,100397.82
2023-11-18T09:53:21.083Z,100397.33
2023-11-18T09:55:55.846Z,100394.64
2023-11-18T09:58:24.581Z,100384.60
2023-11-18T10:00:51.447Z,100377.59
2023-11-18T10:03:18.094Z,100372.01
2023-11-18T10:05:44.618Z,100368.92
2023-11-18T10:08:11.617Z,100366.33
2023-11-18T10:10:38.928Z,100365.55
2023-11-18T10:13:19.234Z,100371.86
2023-11-18T10:15:51.415Z,100381.36
2023-11-18T10:18:25.999Z,100389.31
2023-11-18T10:20:52.769Z,100393.78
2023-11-18T10:23:21.290Z,100390.73
2023-11-18T10:25:53.215Z,100394.07
2023-11-18T10:28:27.926Z,100395.27
2023-11-18T10:30:58.201Z,100398.58
2023-11-18T10:33:31.019Z,100403.34
2023-11-18T10:35:58.242Z,100404.06
2023-11-18T10:38:25.771Z,100407.59
2023-11-18T10:40:56.028Z,100406.45
2023-11-18T10:43:24.856Z,100410.41
2023-11-18T10:46:14.010Z,100419.19
2023-11-18T10:48:47.701Z,100422.66
2023-11-18T10:51:21.073Z,100423.80
2023-11-18T10:53:58.828Z,100424.48
2023-11-18T10:56:30.203Z,100426.17
2023-11-18T10:58:58.599Z,100428.29
2023-11-18T11:01:29.237Z,100434.83
2023-11-18T11:03:56.287Z,100440.56
2023-11-18T11:06:26.548Z,100444.88
2023-11-18T11:08:53.610Z,100443.54
2023-11-18T11:11:22.269Z,100444.52
2023-11-18T11:13:58.818Z,100440.69
2023-11-18T11:16:34.956Z,100444.88
2023-11-18T11:19:08.738Z,100440.78
2023-11-18T11:21:47.995Z,100440.83
2023-11-18T11:24:49.853Z,100436.67
2023-11-18T11:27:36.085Z,100437.98
2023-11-18T11:30:10.827Z,100441.02
2023-11-18T11:32:46.437Z,100443.82
2023-11-18T11:35:19.314Z,100446.96
2023-11-18T11:37:47.672Z,100440.23
2023-11-18T11:40:22.053Z,100434.83
2023-11-18T11:42:55.493Z,100430.22
2023-11-18T11:45:28.667Z,100428.83
2023-11-18T11:48:17.400Z,100434.54
2023-11-18T11:50:54.609Z,100434.23
2023-11-18T11:53:23.695Z,100437.66
2023-11-18T11:55:53.752Z,100439.17
2023-11-18T11:58:28.332Z,100433.34
2023-11-18T12:00:55.007Z,100434.70
2023-11-18T12:03:24.788Z,100443.05
2023-11-18T12:05:55.776Z,100447.10
2023-11-18T12:08:23.155Z,100452.40
2023-11-18T12:10:54.599Z,100455.66
2023-11-18T12:13:27.027Z,100458.42
2023-11-18T12:15:57.518Z,100459.40
2023-11-18T12:18:24.795Z,100457.88
2023-11-18T12:21:03.114Z,100462.02
2023-11-18T12:23:31.000Z,100465.91
2023-11-18T12:26:03.383Z,100467.65
2023-11-18T12:28:34.872Z,100470.13
2023-11-18T12:31:17.713Z,100469.67
2023-11-18T12:34:09.279Z,100471.80
2023-11-18T12:36:57.559Z,100469.98
2023-11-18T12:39:53.249Z,100474.41
2023-11-18T12:42:54.514Z,100476.96
2023-11-18T12:45:46.172Z,100485.45
2023-11-18T12:48:15.336Z,100482.75
2023-11-18T12:50:44.063Z,100487.51
2023-11-18T12:53:11.272Z,100489.73
2023-11-18T12:55:37.888Z,100491.23
2023-11-18T12:58:06.014Z,100494.58
2023-11-18T13:00:34.630Z,100494.80
2023-11-18T13:03:01.694Z,100498.33
2023-11-18T13:05:30.347Z,100500.05
2023-11-18T13:07:58.779Z,100504.45
2023-11-18T13:10:27.422Z,100504.95
2023-11-18T13:12:54.537Z,100510.85
2023-11-18T13:15:25.004Z,100511.56
2023-11-18T13:18:01.408Z,100511.52
2023-11-18T13:20:28.080Z,100517.23
2023-11-18T13:22:57.586Z,100525.23
2023-11-18T13:25:25.813Z,100525.55
2023-11-18T13:27:52.764Z,100525.91
2023-11-18T13:30:21.233Z,100536.36
2023-11-18T13:32:49.874Z,100537.82
2023-11-18T13:35:19.507Z,100540.63
2023-11-18T13:37:49.716Z,100541.36
2023-11-18T13:40:19.795Z,100544.35
2023-11-18T13:42:46.705Z,100546.02
2023-11-18T13:45:27.211Z,100552.84
2023-11-18T13:48:00.912Z,100561.05
2023-11-18T13:50:27.662Z,100558.64
2023-11-18T13:52:54.122Z,100558.64
2023-11-18T13:55:27.937Z,100567.48
2023-11-18T13:57:56.345Z,100570.95
2023-11-18T14:00:23.721Z,100576.50
2023-11-18T14:02:51.873Z,100579.44
2023-11-18T14:05:19.795Z,100576.35
2023-11-18T14:07:48.970Z,100583.70
2023-11-18T14:10:17.843Z,100582.92
2023-11-18T14:13:06.010Z,100589.58
2023-11-18T14:15:36.668Z,100590.64
2023-11-18T14:18:04.245Z,100593.81
2023-11-18T14:20:31.721Z,100595.22
2023-11-18T14:23:02.378Z,100589.64
2023-11-18T14:25:29.506Z,100587.40
2023-11-18T14:27:56.740Z,100586.02
2023-11-18T14:30:25.935Z,100583.92
2023-11-18T14:32:52.974Z,100583.55
2023-11-18T14:35:20.912Z,100586.36
2023-11-18T14:37:47.523Z,100577.59
2023-11-18T14:40:14.570Z,100584.96
2023-11-18T14:42:45.753Z,100584.34
2023-11-18T14:45:13.510Z,100581.63
2023-11-18T14:47:40.726Z,100578.67
2023-11-18T14:50:17.335Z,100580.45
2023-11-18T14:52:45.966Z,100584.63
2023-11-18T14:55:12.759Z,100585.30
2023-11-18T14:57:42.411Z,100582.84
2023-11-18T15:00:22.346Z,100585.85
2023-11-18T15:02:50.597Z,100591.33
2023-11-18T15:05:21.420Z,100592.85
2023-11-18T15:07:49.595Z,100596.81
2023-11-18T15:10:20.555Z,100600.06
2023-11-18T15:12:53.841Z,100599.66
2023-11-18T15:15:22.222Z,100598.02
2023-11-18T15:17:52.239Z,100599.99
2023-11-18T15:20:19.060Z,100601.27
2023-11-18T15:22:46.519Z,100601.69
2023-11-18T15:25:13.464Z,100606.47
2023-11-18T15:27:44.823Z,100609.48
2023-11-18T15:30:12.003Z,100606.77
2023-11-18T15:32:42.231Z,100611.31
2023-11-18T15:35:09.635Z,100609.30
2023-11-18T15:37:42.780Z,100609.00
2023-11-18T15:40:11.089Z,100609.23
2023-11-18T15:42:38.838Z,100606.48
2023-11-18T15:45:13.404Z,100604.06
2023-11-18T15:47:43.052Z,100604.45
2023-11-18T15:50:16.577Z,100599.64
2023-11-18T15:52:43.640Z,100603.67
2023-11-18T15:55:10.626Z,100605.33
2023-11-18T15:57:38.703Z,100605.94
2023-11-18T16:00:07.039Z,100610.20
2023-11-18T16:02:33.846Z,100612.41
2023-11-18T16:05:00.768Z,100617.89
2023-11-18T16:07:27.407Z,100623.63
2023-11-18T16:09:55.108Z,100619.98
2023-11-18T16:12:21.639Z,100624.66
2023-11-18T16:14:48.770Z,100629.86
2023-11-18T16:17:16.120Z,100631.81
2023-11-18T16:19:43.254Z,100635.50
2023-11-18T16:22:10.393Z,100638.14
2023-11-18T16:24:37.274Z,100639.61
2023-11-18T16:27:04.695Z,100644.06
2023-11-18T16:29:31.334Z,100646.11
2023-11-18T16:31:57.895Z,100651.08
2023-11-18T16:34:25.914Z,100649.34
2023-11-18T16:36:56.969Z,100653.09
2023-11-18T16:39:23.648Z,100652.81
2023-11-18T16:41:50.423Z,100657.91
2023-11-18T16:44:16.993Z,100661.60
2023-11-18T16:46:45.135Z,100665.33
2023-11-18T16:49:16.579Z,100670.50
2023-11-18T16:51:43.049Z,100671.17
2023-11-18T16:54:09.494Z,100668.23
2023-11-18T16:56:36.398Z,100663.87
2023-11-18T16:59:03.705Z,100668.99
2023-11-18T17:01:30.763Z,100673.91
2023-11-18T17:03:58.530Z,100677.60
2023-11-18T17:06:25.190Z,100683.83
2023-11-18T17:08:53.158Z,100683.07
2023-11-18T17:11:19.778Z,100686.30
2023-11-18T17:13:46.904Z,100688.30
2023-11-18T17:16:17.306Z,100686.65
2023-11-18T17:18:44.376Z,100685.54
2023-11-18T17:21:11.230Z,100690.69
2023-11-18T17:23:44.086Z,100691.19
2023-11-18T17:26:10.704Z,100696.57
2023-11-18T17:28:37.315Z,100694.54
2023-11-18T17:31:04.322Z,100689.04
2023-11-18T17:33:31.848Z,100689.77
2023-11-18T17:36:02.370Z,100688.27
2023-11-18T17:38:29.074Z,100691.27
2023-11-18T17:40:56.120Z,100696.68
2023-11-18T17:43:23.404Z,100697.74
2023-11-18T17:45:49.936Z,100702.95
2023-11-18T17:48:16.549Z,100701.41
2023-11-18T17:50:43.304Z,100706.80
2023-11-18T17:53:10.356Z,100706.65
2023-11-18T17:55:37.056Z,100705.44
2023-11-18T17:58:03.727Z,100700.94
2023-11-18T18:00:30.440Z,100700.13
2023-11-18T18:02:57.189Z,100701.05
2023-11-18T18:05:23.915Z,100705.42
2023-11-18T18:07:50.650Z,100713.64
2023-11-18T18:10:17.268Z,100717.02
2023-11-18T18:12:46.966Z,100718.49
2023-11-18T18:15:14.420Z,100725.33
2023-11-18T18:17:41.516Z,100728.64
2023-11-18T18:20:09.605Z,100732.44
2023-11-18T18:22:39.186Z,100734.83
2023-11-18T18:25:06.694Z,100734.84
2023-11-18T18:27:34.055Z,100734.88
2023-11-18T18:30:01.202Z,100733.24
2023-11-18T18:32:28.026Z,100737.85
2023-11-18T18:34:54.672Z,100738.45
2023-11-18T18:37:22.705Z,100735.09
2023-11-18T18:39:51.565Z,100732.61
2023-11-18T18:42:19.232Z,100735.87
2023-11-18T18:44:45.833Z,100733.08
2023-11-18T18:47:12.798Z,100729.93
2023-11-18T18:49:39.730Z,100727.52
2023-11-18T18:52:06.382Z,100728.38
2023-11-18T18:54:33.398Z,100730.40
2023-11-18T18:57:00.580Z,100727.52
2023-11-18T18:59:27.237Z,100722.92
2023-11-18T19:01:54.805Z,100724.53
2023-11-18T19:04:21.845Z,100723.90
2023-11-18T19:06:49.884Z,100719.09
2023-11-18T19:09:18.742Z,100722.23
2023-11-18T19:11:46.103Z,100727.63
2023-11-18T19:14:12.639Z,100730.80
2023-11-18T19:16:41.107Z,100734.30
2023-11-18T19:19:10.553Z,100731.55
2023-11-18T19:21:37.200Z,100729.83
2023-11-18T19:24:04.168Z,100727.23
2023-11-18T19:26:36.348Z,100720.13
2023-11-18T19:29:03.691Z,100714.23
2023-11-18T19:31:30.473Z,100709.89
2023-11-18T19:33:58.826Z,100709.21
2023-11-18T19:36:25.782Z,100712.20
2023-11-18T19:38:52.341Z,100712.13
2023-11-18T19:41:19.108Z,100711.15
2023-11-18T19:43:45.760Z,100711.23
2023-11-18T19:46:12.953Z,100714.24
2023-11-18T19:48:39.546Z,100708.74
2023-11-18T19:51:08.435Z,100706.73
2023-11-18T19:53:35.145Z,100703.51
2023-11-18T19:56:01.888Z,100709.80
2023-11-18T19:58:28.621Z,100715.92
2023-11-18T20:00:55.830Z,100713.02
2023-11-18T20:03:22.799Z,100718.12
2023-11-18T20:05:50.070Z,100719.40
2023-11-18T20:08:19.265Z,100731.89
2023-11-18T20:10:47.497Z,100736.44
2023-11-18T20:13:14.064Z,100732.31
2023-11-18T20:15:42.292Z,100731.45
2023-11-18T20:18:11.845Z,100735.61
2023-11-18T20:20:38.656Z,100731.46
2023-11-18T20:23:05.315Z,100734.73
2023-11-18T20:25:32.048Z,100733.14
2023-11-18T20:27:58.908Z,100731.38
2023-11-18T20:30:25.798Z,100725.30
2023-11-18T20:32:52.469Z,100724.59
2023-11-18T20:35:19.340Z,100728.55
2023-11-18T20:37:48.118Z,100728.55
2023-11-18T20:40:16.986Z,100729.04
2023-11-18T20:42:43.697Z,100729.73
2023-11-18T20:45:14.074Z,100724.17
2023-11-18T20:47:40.912Z,100725.34
2023-11-18T20:50:07.856Z,100721.99
2023-11-18T20:52:34.640Z,100714.67
2023-11-18T20:55:01.981Z,100713.05
2023-11-18T20:57:28.699Z,100713.17
2023-11-18T20:59:55.319Z,100714.68
2023-11-18T21:02:22.728Z,100713.94
2023-11-18T21:04:49.524Z,100710.80
2023-11-18T21:07:16.999Z,100700.91
2023-11-18T21:09:43.563Z,100697.28
2023-11-18T21:12:18.044Z,100694.00
2023-11-18T21:14:49.397Z,100693.65
2023-11-18T21:17:18.222Z,100690.56
2023-11-18T21:19:45.052Z,100688.50
2023-11-18T21:22:13.550Z,100693.02
2023-11-18T21:24:39.969Z,100699.05
2023-11-18T21:27:07.472Z,100697.30
2023-11-18T21:29:34.387Z,100696.91
2023-11-18T21:32:03.445Z,100692.71
2023-11-18T21:34:30.535Z,100687.84
2023-11-18T21:36:57.170Z,100687.64
2023-11-18T21:39:23.710Z,100686.76
2023-11-18T21:41:50.243Z,100681.92
2023-11-18T21:44:18.606Z,100682.64
2023-11-18T21:46:45.763Z,100679.21
2023-11-18T21:49:12.250Z,100680.27
2023-11-18T21:51:38.787Z,100674.42
2023-11-18T21:54:05.459Z,100678.60
2023-11-18T21:56:35.274Z,100679.11
2023-11-18T21:59:03.581Z,100677.02
2023-11-18T22:01:30.898Z,100675.80
2023-11-18T22:03:57.508Z,100671.98
2023-11-18T22:06:24.854Z,100669.21
2023-11-18T22:08:51.788Z,100671.30
2023-11-18T22:11:19.621Z,100666.63
2023-11-18T22:13:48.070Z,100667.86
2023-11-18T22:16:15.715Z,100665.81
2023-11-18T22:18:42.219Z,100662.92
2023-11-18T22:21:08.735Z,100663.46
2023-11-18T22:23:38.549Z,100661.57
2023-11-18T22:26:07.332Z,100658.77
2023-11-18T22:28:33.943Z,100654.44
2023-11-18T22:31:00.454Z,100656.34
2023-11-18T22:33:27.015Z,100660.48
2023-11-18T22:35:54.232Z,100668.27
2023-11-18T22:38:24.233Z,100666.91
2023-11-18T22:40:51.615Z,100661.39
2023-11-18T22:43:19.950Z,100659.84
2023-11-18T22:45:49.170Z,100664.36
2023-11-18T22:48:15.773Z,100661.42
2023-11-18T22:50:42.363Z,100660.88
2023-11-18T22:53:10.549Z,100658.59
2023-11-18T22:55:38.711Z,100653.40
2023-11-18T22:58:05.445Z,100656.33
2023-11-18T23:00:31.881Z,100651.48
2023-11-18T23:02:59.047Z,100645.98
2023-11-18T23:05:28.489Z,100633.20
2023-11-18T23:07:58.231Z,100638.79
2023-11-18T23:10:25.438Z,100645.58
2023-11-18T23:12:53.091Z,100650.45
2023-11-18T23:15:22.275Z,100647.69
2023-11-18T23:17:49.928Z,100645.75
2023-11-18T23:20:16.591Z,100647.28
2023-11-18T23:22:43.128Z,100650.02
2023-11-18T23:25:09.724Z,100648.80
2023-11-18T23:27:37.179Z,100643.92
2023-11-18T23:30:06.669Z,100644.08
2023-11-18T23:32:36.290Z,100645.13
2023-11-18T23:35:06.138Z,100652.39
2023-11-18T23:37:32.752Z,100654.83
2023-11-18T23:39:59.283Z,100658.98
2023-11-18T23:42:25.680Z,100662.58
2023-11-18T23:44:52.637Z,100664.27
2023-11-18T23:47:20.347Z,100660.42
2023-11-18T23:52:23.433Z,100666.44
2023-11-18T23:54:50.793Z,100672.48
2023-11-18T23:57:17.917Z,100670.77
2023-11-18T23:59:44.427Z,100671.32
